createdAt,value
2022-10-28T00:01:23.706Z,56.60
2022-10-28T00:03:55.421Z,54.80
2022-10-28T00:06:27.697Z,40.30
2022-10-28T00:09:12.227Z,50.00
2022-10-28T00:11:41.805Z,37.10
2022-10-28T00:14:24.661Z,32.10
2022-10-28T00:17:06.919Z,33.40
2022-10-28T00:19:49.435Z,35.80
2022-10-28T00:22:32.176Z,42.20
2022-10-28T00:25:01.148Z,39.30
2022-10-28T00:27:30.150Z,44.60
2022-10-28T00:30:00.684Z,39.80
2022-10-28T00:32:42.969Z,58.20
2022-10-28T00:35:11.912Z,50.40
2022-10-28T00:37:41.508Z,59.10
2022-10-28T00:40:24.309Z,47.10
2022-10-28T00:42:53.307Z,45.30
2022-10-28T00:45:23.294Z,40.50
2022-10-28T00:48:03.428Z,51.00
2022-10-28T00:50:54.148Z,49.10
2022-10-28T00:53:27.457Z,52.40
2022-10-28T00:56:12.160Z,45.30
2022-10-28T00:59:00.237Z,45.10
2022-10-28T01:01:43.296Z,44.50
2022-10-28T01:04:14.158Z,42.20
2022-10-28T01:06:58.234Z,49.20
2022-10-28T01:09:27.019Z,41.70
2022-10-28T01:12:18.050Z,38.00
2022-10-28T01:15:10.744Z,31.50
2022-10-28T01:17:49.887Z,28.00
2022-10-28T01:20:48.350Z,31.20
2022-10-28T01:23:20.917Z,28.30
2022-10-28T01:26:16.443Z,34.80
2022-10-28T01:29:17.186Z,28.70
2022-10-28T01:32:02.478Z,32.50
2022-10-28T01:35:12.279Z,36.40
2022-10-28T01:37:56.832Z,35.20
2022-10-28T01:40:52.578Z,29.70
2022-10-28T01:43:38.183Z,48.50
2022-10-28T01:46:32.055Z,30.60
2022-10-28T01:49:22.774Z,29.30
2022-10-28T01:51:57.665Z,25.80
2022-10-28T01:54:29.707Z,30.10
2022-10-28T01:57:14.073Z,27.10
2022-10-28T01:59:58.771Z,40.30
2022-10-28T02:02:33.437Z,27.20
2022-10-28T02:05:40.453Z,38.10
2022-10-28T02:08:41.613Z,27.80
2022-10-28T02:11:46.330Z,28.00
2022-10-28T02:18:08.827Z,34.50
2022-10-28T02:21:06.974Z,41.50
2022-10-28T02:23:53.281Z,31.30
2022-10-28T02:26:42.146Z,27.60
2022-10-28T02:29:40.163Z,28.00
2022-10-28T02:32:16.193Z,28.40
2022-10-28T02:35:01.685Z,26.90
2022-10-28T02:37:35.858Z,29.40
2022-10-28T02:40:27.235Z,29.70
2022-10-28T02:43:13.800Z,33.60
2022-10-28T02:45:47.432Z,29.50
2022-10-28T02:48:32.208Z,28.40
2022-10-28T02:51:24.893Z,30.80
2022-10-28T02:54:03.024Z,28.50
2022-10-28T02:56:55.889Z,29.80
2022-10-28T02:59:38.522Z,32.70
2022-10-28T03:02:21.691Z,27.60
2022-10-28T03:05:06.923Z,28.90
2022-10-28T03:07:35.874Z,28.90
2022-10-28T03:10:05.385Z,23.00
2022-10-28T03:12:34.989Z,26.30
2022-10-28T03:15:05.354Z,26.30
2022-10-28T03:17:34.138Z,31.20
2022-10-28T03:20:16.707Z,27.50
2022-10-28T03:22:59.546Z,27.70
2022-10-28T03:25:28.857Z,29.40
2022-10-28T03:27:57.755Z,30.20
2022-10-28T03:30:40.384Z,29.90
2022-10-28T03:33:09.672Z,26.20
2022-10-28T03:35:39.079Z,28.10
2022-10-28T03:38:09.917Z,27.50
2022-10-28T03:40:39.081Z,36.10
2022-10-28T03:43:08.496Z,29.30
2022-10-28T03:45:37.458Z,23.40
2022-10-28T03:48:07.503Z,29.40
2022-10-28T03:50:54.290Z,24.00
2022-10-28T03:53:27.578Z,29.10
2022-10-28T03:56:01.821Z,26.30
2022-10-28T03:58:31.063Z,27.10
2022-10-28T04:01:13.844Z,35.00
2022-10-28T04:03:56.186Z,31.60
2022-10-28T04:06:38.857Z,32.30
2022-10-28T04:09:08.297Z,29.90
2022-10-28T04:11:37.663Z,27.80
2022-10-28T04:14:19.985Z,26.50
2022-10-28T04:17:02.832Z,26.60
2022-10-28T04:19:31.760Z,20.90
2022-10-28T04:22:00.656Z,23.70
2022-10-28T04:24:42.971Z,21.80
2022-10-28T04:27:25.205Z,22.30
2022-10-28T04:29:54.383Z,28.90
2022-10-28T04:32:23.580Z,22.70
2022-10-28T04:35:06.183Z,22.30
2022-10-28T04:37:35.742Z,25.30
2022-10-28T04:40:05.761Z,23.90
2022-10-28T04:42:35.024Z,20.30
2022-10-28T04:45:04.934Z,22.40
2022-10-28T04:47:33.984Z,18.10
2022-10-28T04:50:03.435Z,22.20
2022-10-28T04:52:45.746Z,24.00
2022-10-28T04:55:14.548Z,23.10
2022-10-28T04:57:43.174Z,33.50
2022-10-28T05:00:12.733Z,23.40
2022-10-28T05:02:56.200Z,24.10
2022-10-28T05:05:26.468Z,20.20
2022-10-28T05:07:55.508Z,23.80
2022-10-28T05:10:25.387Z,27.50
2022-10-28T05:12:53.972Z,23.50
2022-10-28T05:15:22.780Z,22.90
2022-10-28T05:17:51.945Z,30.90
2022-10-28T05:20:35.291Z,24.90
2022-10-28T05:23:17.901Z,29.40
2022-10-28T05:26:00.171Z,25.40
2022-10-28T05:28:29.303Z,31.80
2022-10-28T05:31:12.022Z,26.70
2022-10-28T05:33:40.904Z,23.50
2022-10-28T05:36:10.029Z,25.80
2022-10-28T05:38:40.205Z,24.50
2022-10-28T05:41:09.135Z,27.40
2022-10-28T05:43:52.758Z,26.80
2022-10-28T05:46:35.112Z,30.80
2022-10-28T05:49:20.946Z,26.00
2022-10-28T05:52:03.596Z,26.20
2022-10-28T05:54:32.179Z,28.90
2022-10-28T05:57:01.139Z,26.60
2022-10-28T05:59:43.489Z,30.20
2022-10-28T06:02:15.515Z,29.90
2022-10-28T06:04:44.470Z,31.30
2022-10-28T06:07:13.694Z,31.80
2022-10-28T06:09:42.422Z,37.80
2022-10-28T06:12:09.748Z,39.60
2022-10-28T06:14:38.829Z,46.70
2022-10-28T06:17:07.826Z,39.80
2022-10-28T06:19:50.459Z,38.10
2022-10-28T06:22:19.066Z,32.90
2022-10-28T06:25:01.410Z,32.80
2022-10-28T06:27:44.170Z,32.80
2022-10-28T06:30:13.783Z,30.30
2022-10-28T06:32:56.739Z,28.20
2022-10-28T06:35:25.664Z,27.20
2022-10-28T06:37:56.282Z,32.30
2022-10-28T06:40:39.145Z,28.80
2022-10-28T06:43:08.969Z,25.40
2022-10-28T06:45:37.979Z,24.20
2022-10-28T06:48:22.103Z,24.90
2022-10-28T06:51:05.219Z,31.00
2022-10-28T06:53:34.721Z,26.50
2022-10-28T06:56:18.078Z,24.80
2022-10-28T06:59:00.798Z,31.00
2022-10-28T07:01:31.053Z,30.20
2022-10-28T07:04:00.195Z,24.70
2022-10-28T07:06:42.602Z,26.10
2022-10-28T07:09:14.491Z,29.50
2022-10-28T07:11:45.960Z,30.20
2022-10-28T07:14:14.961Z,25.40
2022-10-28T07:16:57.243Z,25.70
2022-10-28T07:19:27.048Z,29.50
2022-10-28T07:21:56.354Z,29.60
2022-10-28T07:24:25.544Z,26.60
2022-10-28T07:26:57.039Z,31.80
2022-10-28T07:29:26.727Z,30.90
2022-10-28T07:31:57.073Z,28.00
2022-10-28T07:34:27.273Z,34.10
2022-10-28T07:36:57.497Z,37.80
2022-10-28T07:39:26.925Z,27.70
2022-10-28T07:41:55.735Z,31.80
2022-10-28T07:44:24.547Z,45.70
2022-10-28T07:46:57.170Z,28.50
2022-10-28T07:49:27.686Z,41.20
2022-10-28T07:52:11.319Z,44.70
2022-10-28T07:54:39.961Z,35.00
2022-10-28T07:57:08.948Z,49.00
2022-10-28T07:59:38.119Z,42.00
2022-10-28T08:02:08.176Z,47.00
2022-10-28T08:04:51.628Z,40.30
2022-10-28T08:07:20.880Z,37.30
2022-10-28T08:09:49.556Z,43.50
2022-10-28T08:12:18.326Z,36.80
2022-10-28T08:14:47.141Z,36.40
2022-10-28T08:17:16.243Z,35.60
2022-10-28T08:19:45.418Z,44.50
2022-10-28T08:22:14.452Z,34.00
2022-10-28T08:24:43.776Z,40.50
2022-10-28T08:27:12.819Z,39.20
2022-10-28T08:29:42.069Z,42.10
2022-10-28T08:32:11.048Z,41.10
2022-10-28T08:34:42.701Z,36.70
2022-10-28T08:37:12.923Z,33.10
2022-10-28T08:39:41.871Z,36.90
2022-10-28T08:42:27.064Z,41.70
2022-10-28T08:45:01.353Z,41.90
2022-10-28T08:47:53.775Z,38.40
2022-10-28T08:50:25.568Z,40.30
2022-10-28T08:53:00.819Z,39.20
2022-10-28T08:55:44.897Z,41.80
2022-10-28T08:58:19.918Z,38.70
2022-10-28T09:00:54.738Z,41.40
2022-10-28T09:03:27.869Z,38.90
2022-10-28T09:06:11.215Z,44.30
2022-10-28T09:08:43.576Z,38.40
2022-10-28T09:11:37.834Z,44.10
2022-10-28T09:14:26.908Z,39.30
2022-10-28T09:17:08.430Z,42.80
2022-10-28T09:20:06.904Z,42.20
2022-10-28T09:23:06.496Z,44.30
2022-10-28T09:26:18.337Z,48.20
2022-10-28T09:28:50.397Z,39.90
2022-10-28T09:31:43.149Z,40.20
2022-10-28T09:34:32.488Z,42.70
2022-10-28T09:37:15.298Z,46.50
2022-10-28T09:40:23.492Z,50.90
2022-10-28T09:43:23.174Z,39.60
2022-10-28T09:45:56.347Z,56.10
2022-10-28T09:48:46.909Z,48.00
2022-10-28T09:51:46.555Z,45.30
2022-10-28T09:54:15.836Z,45.90
2022-10-28T09:56:44.810Z,47.60
2022-10-28T09:59:31.620Z,54.10
2022-10-28T10:02:28.541Z,54.30
2022-10-28T10:05:16.983Z,50.00
2022-10-28T10:08:11.496Z,44.80
2022-10-28T10:11:21.256Z,42.30
2022-10-28T10:13:52.199Z,44.30
2022-10-28T10:16:31.994Z,45.80
2022-10-28T10:19:03.891Z,41.90
2022-10-28T10:21:48.827Z,43.20
2022-10-28T10:24:37.110Z,45.80
2022-10-28T10:27:25.603Z,44.90
2022-10-28T10:29:55.831Z,41.00
2022-10-28T10:32:34.328Z,48.20
2022-10-28T10:35:32.416Z,41.70
2022-10-28T10:38:16.130Z,37.60
2022-10-28T10:40:53.235Z,42.70
2022-10-28T10:43:32.292Z,37.00
2022-10-28T10:46:17.121Z,39.70
2022-10-28T10:49:19.073Z,42.70
2022-10-28T10:51:58.062Z,40.10
2022-10-28T10:54:58.864Z,34.80
2022-10-28T10:57:28.674Z,41.70
2022-10-28T10:59:58.186Z,43.80
2022-10-28T11:02:40.892Z,49.60
2022-10-28T11:05:11.416Z,36.30
2022-10-28T11:08:05.326Z,37.80
2022-10-28T11:11:24.720Z,42.50
2022-10-28T11:14:11.182Z,48.00
2022-10-28T11:16:59.095Z,43.50
2022-10-28T11:19:42.854Z,34.50
2022-10-28T11:22:16.484Z,36.40
2022-10-28T11:25:18.290Z,38.10
2022-10-28T11:28:03.114Z,34.80
2022-10-28T11:34:08.069Z,26.00
2022-10-28T11:37:48.301Z,34.50
2022-10-28T11:40:31.418Z,31.80
2022-10-28T11:43:16.693Z,38.30
2022-10-28T11:46:05.564Z,30.90
2022-10-28T11:49:05.465Z,29.00
2022-10-28T11:52:08.009Z,28.80
2022-10-28T11:55:12.826Z,25.50
2022-10-28T11:58:05.012Z,25.50
2022-10-28T12:00:37.198Z,21.30
2022-10-28T12:03:11.941Z,24.00
2022-10-28T12:06:09.951Z,21.20
2022-10-28T12:08:52.651Z,21.50
2022-10-28T12:11:44.819Z,30.40
2022-10-28T12:14:46.421Z,20.90
2022-10-28T12:17:22.803Z,24.60
2022-10-28T12:20:34.343Z,23.40
2022-10-28T12:23:11.235Z,40.10
2022-10-28T12:25:59.535Z,32.70
2022-10-28T12:29:05.262Z,40.50
2022-10-28T12:31:48.714Z,27.00
2022-10-28T12:34:55.873Z,41.60
2022-10-28T12:37:49.086Z,32.70
2022-10-28T12:40:49.460Z,34.00
2022-10-28T12:43:30.750Z,19.20
2022-10-28T12:46:00.982Z,24.10
2022-10-28T12:48:59.404Z,29.80
2022-10-28T12:51:34.682Z,25.40
2022-10-28T12:54:44.067Z,23.40
2022-10-28T12:57:34.659Z,23.80
2022-10-28T13:00:28.422Z,21.30
2022-10-28T13:03:16.044Z,23.50
2022-10-28T13:06:22.973Z,20.10
2022-10-28T13:09:23.858Z,23.30
2022-10-28T13:12:11.365Z,27.80
2022-10-28T13:15:01.892Z,26.50
2022-10-28T13:17:43.168Z,27.60
2022-10-28T13:20:44.029Z,28.40
2022-10-28T13:23:31.861Z,25.40
2022-10-28T13:26:30.290Z,28.10
2022-10-28T13:29:41.464Z,21.00
2022-10-28T13:32:42.056Z,29.10
2022-10-28T13:35:29.858Z,26.70
2022-10-28T13:38:00.553Z,27.20
2022-10-28T13:40:32.104Z,22.00
2022-10-28T13:43:01.718Z,24.00
2022-10-28T13:45:49.275Z,19.80
2022-10-28T13:48:47.380Z,27.00
2022-10-28T13:51:17.285Z,19.90
2022-10-28T13:53:46.284Z,19.60
2022-10-28T13:56:28.605Z,19.70
2022-10-28T13:59:01.216Z,20.00
2022-10-28T14:02:07.500Z,33.80
2022-10-28T14:04:55.705Z,19.80
2022-10-28T14:07:54.731Z,17.50
2022-10-28T14:10:27.408Z,24.70
2022-10-28T14:13:00.045Z,22.60
2022-10-28T14:18:43.034Z,34.80
2022-10-28T14:21:12.681Z,27.10
2022-10-28T14:24:10.423Z,28.30
2022-10-28T14:27:08.609Z,23.20
2022-10-28T14:29:55.624Z,21.90
2022-10-28T14:32:44.605Z,19.30
2022-10-28T14:35:13.409Z,20.30
2022-10-28T14:38:11.763Z,26.50
2022-10-28T14:41:11.073Z,26.30
2022-10-28T14:43:47.718Z,21.90
2022-10-28T14:46:34.930Z,25.10
2022-10-28T14:49:14.683Z,24.90
2022-10-28T14:51:45.191Z,23.50
2022-10-28T14:54:17.984Z,25.10
2022-10-28T14:57:06.009Z,22.30
2022-10-28T14:59:52.004Z,30.70
2022-10-28T15:02:28.613Z,22.80
2022-10-28T15:05:16.113Z,26.80
2022-10-28T15:07:44.954Z,24.20
2022-10-28T15:10:17.350Z,17.80
2022-10-28T15:13:00.936Z,31.50
2022-10-28T15:15:53.532Z,36.30
2022-10-28T15:18:25.551Z,36.00
2022-10-28T15:21:16.136Z,27.10
2022-10-28T15:26:29.864Z,26.20
2022-10-28T15:28:59.563Z,22.50
2022-10-28T15:31:28.486Z,31.90
2022-10-28T15:34:21.653Z,24.00
2022-10-28T15:36:50.869Z,27.70
2022-10-28T15:39:20.024Z,34.60
2022-10-28T15:42:03.241Z,36.50
2022-10-28T15:44:57.148Z,25.00
2022-10-28T15:47:37.601Z,26.00
2022-10-28T15:50:42.003Z,33.40
2022-10-28T15:53:10.799Z,39.90
2022-10-28T15:56:12.757Z,25.70
2022-10-28T15:59:11.178Z,37.00
2022-10-28T16:01:41.067Z,26.70
2022-10-28T16:04:22.554Z,46.60
2022-10-28T16:06:57.228Z,33.30
2022-10-28T16:09:33.227Z,26.20
2022-10-28T16:12:19.761Z,37.30
2022-10-28T16:15:02.645Z,27.00
2022-10-28T16:17:36.106Z,34.20
2022-10-28T16:20:17.293Z,28.10
2022-10-28T16:22:49.163Z,28.90
2022-10-28T16:25:22.864Z,32.30
2022-10-28T16:28:21.684Z,34.10
2022-10-28T16:30:56.023Z,33.00
2022-10-28T16:33:42.684Z,30.00
2022-10-28T16:36:29.028Z,35.80
2022-10-28T16:39:15.293Z,39.20
2022-10-28T16:41:43.937Z,30.20
2022-10-28T16:44:30.170Z,30.90
2022-10-28T16:46:58.747Z,38.60
2022-10-28T16:49:27.874Z,31.20
2022-10-28T16:51:56.979Z,28.50
2022-10-28T16:54:25.529Z,41.90
2022-10-28T16:56:53.959Z,28.40
2022-10-28T16:59:40.626Z,32.40
2022-10-28T17:02:30.858Z,31.70
2022-10-28T17:04:59.935Z,26.30
2022-10-28T17:07:29.145Z,35.20
2022-10-28T17:09:57.882Z,38.60
2022-10-28T17:12:28.276Z,34.30
2022-10-28T17:14:56.809Z,36.50
2022-10-28T17:17:25.741Z,28.50
2022-10-28T17:19:54.521Z,35.50
2022-10-28T17:22:23.504Z,25.70
2022-10-28T17:25:06.012Z,32.70
2022-10-28T17:27:55.729Z,39.70
2022-10-28T17:30:24.735Z,26.80
2022-10-28T17:32:54.642Z,29.50
2022-10-28T17:35:41.058Z,31.30
2022-10-28T17:38:09.520Z,35.30
2022-10-28T17:40:38.049Z,34.40
2022-10-28T17:43:23.275Z,30.00
2022-10-28T17:46:08.486Z,26.80
2022-10-28T17:48:50.661Z,24.30
2022-10-28T17:51:21.453Z,27.30
2022-10-28T17:56:50.511Z,32.30
2022-10-28T17:59:19.525Z,29.90
2022-10-28T18:01:48.493Z,28.10
2022-10-28T18:04:31.358Z,29.60
2022-10-28T18:07:00.249Z,32.90
2022-10-28T18:09:46.565Z,27.30
2022-10-28T18:12:15.373Z,34.40
2022-10-28T18:14:44.137Z,29.30
2022-10-28T18:17:14.823Z,32.10
2022-10-28T18:20:02.331Z,27.90
2022-10-28T18:22:30.958Z,29.40
2022-10-28T18:25:17.143Z,35.10
2022-10-28T18:27:45.681Z,30.80
2022-10-28T18:30:14.288Z,34.00
2022-10-28T18:32:42.947Z,39.70
2022-10-28T18:35:25.571Z,28.50
2022-10-28T18:37:55.026Z,22.10
2022-10-28T18:40:50.292Z,32.20
2022-10-28T18:43:36.565Z,29.60
2022-10-28T18:46:18.772Z,32.50
2022-10-28T18:49:02.105Z,38.10
2022-10-28T18:51:31.980Z,29.30
2022-10-28T18:54:01.744Z,40.90
2022-10-28T18:56:48.018Z,29.60
2022-10-28T18:59:17.528Z,30.90
2022-10-28T19:02:03.864Z,27.90
2022-10-28T19:04:32.619Z,33.40
2022-10-28T19:07:05.302Z,30.40
2022-10-28T19:09:36.180Z,35.40
2022-10-28T19:12:05.579Z,33.60
2022-10-28T19:14:34.349Z,27.90
2022-10-28T19:17:03.861Z,26.30
2022-10-28T19:19:35.567Z,31.70
2022-10-28T19:22:08.662Z,24.90
2022-10-28T19:24:37.505Z,26.80
2022-10-28T19:27:06.106Z,30.40
2022-10-28T19:29:34.617Z,34.60
2022-10-28T19:32:04.063Z,36.10
2022-10-28T19:34:32.691Z,38.90
2022-10-28T19:37:01.477Z,48.10
2022-10-28T19:39:30.616Z,22.90
2022-10-28T19:41:59.397Z,36.40
2022-10-28T19:44:27.798Z,29.50
2022-10-28T19:46:56.909Z,32.60
2022-10-28T19:49:44.563Z,29.90
2022-10-28T19:52:13.826Z,35.50
2022-10-28T19:54:42.732Z,34.90
2022-10-28T19:57:29.111Z,23.90
2022-10-28T20:00:12.354Z,26.40
2022-10-28T20:02:41.489Z,24.00
2022-10-28T20:05:11.681Z,26.10
2022-10-28T20:07:40.994Z,28.20
2022-10-28T20:13:10.613Z,28.60
2022-10-28T20:15:39.545Z,30.70
2022-10-28T20:18:08.143Z,25.20
2022-10-28T20:20:38.056Z,26.30
2022-10-28T20:23:07.341Z,28.40
2022-10-28T20:25:35.932Z,33.70
2022-10-28T20:28:23.052Z,28.30
2022-10-28T20:31:04.749Z,32.70
2022-10-28T20:33:53.876Z,24.80
2022-10-28T20:36:34.101Z,24.00
2022-10-28T20:39:16.015Z,22.50
2022-10-28T20:42:02.475Z,25.50
2022-10-28T20:47:20.071Z,31.80
2022-10-28T20:49:49.507Z,29.50
2022-10-28T20:52:18.542Z,32.60
2022-10-28T20:54:47.801Z,22.30
2022-10-28T20:57:16.730Z,22.20
2022-10-28T20:59:59.217Z,23.20
2022-10-28T21:02:45.406Z,26.40
2022-10-28T21:05:14.780Z,21.20
2022-10-28T21:08:01.003Z,27.80
2022-10-28T21:10:44.006Z,28.30
2022-10-28T21:13:26.538Z,24.60
2022-10-28T21:15:57.707Z,29.60
2022-10-28T21:18:27.082Z,22.20
2022-10-28T21:21:00.452Z,20.10
2022-10-28T21:23:43.127Z,22.10
2022-10-28T21:26:27.469Z,25.80
2022-10-28T21:29:10.269Z,31.70
2022-10-28T21:31:50.126Z,29.90
2022-10-28T21:34:47.707Z,23.50
2022-10-28T21:37:31.255Z,35.70
2022-10-28T21:40:14.192Z,26.90
2022-10-28T21:42:50.030Z,19.60
2022-10-28T21:45:18.719Z,25.30
2022-10-28T21:47:47.772Z,30.90
2022-10-28T21:50:34.240Z,24.80
2022-10-28T21:53:04.479Z,28.20
2022-10-28T21:55:49.098Z,29.80
2022-10-28T21:58:19.543Z,27.70
2022-10-28T22:00:48.914Z,34.40
2022-10-28T22:03:31.667Z,31.50
2022-10-28T22:06:14.953Z,21.40
2022-10-28T22:09:01.194Z,23.60
2022-10-28T22:11:30.515Z,25.40
2022-10-28T22:14:17.016Z,21.00
2022-10-28T22:17:03.419Z,20.40
2022-10-28T22:19:50.508Z,24.50
2022-10-28T22:22:19.536Z,22.40
2022-10-28T22:25:09.507Z,23.20
2022-10-28T22:27:52.954Z,28.10
2022-10-28T22:30:21.836Z,20.70
2022-10-28T22:36:07.035Z,23.00
2022-10-28T22:38:50.475Z,30.60
2022-10-28T22:41:37.203Z,28.20
2022-10-28T22:44:07.359Z,39.10
2022-10-28T22:46:37.217Z,35.40
2022-10-28T22:49:06.063Z,28.30
2022-10-28T22:51:35.316Z,30.60
2022-10-28T22:54:05.024Z,27.20
2022-10-28T22:56:51.306Z,32.30
2022-10-28T22:59:20.733Z,31.10
2022-10-28T23:02:03.193Z,29.00
2022-10-28T23:07:33.068Z,32.50
2022-10-28T23:13:03.711Z,25.20
2022-10-28T23:15:32.938Z,22.10
2022-10-28T23:18:15.349Z,36.80
2022-10-28T23:21:11.429Z,33.90
2022-10-28T23:23:41.488Z,29.70
2022-10-28T23:26:13.334Z,26.30
2022-10-28T23:29:01.113Z,30.60
2022-10-28T23:31:44.214Z,26.50
2022-10-28T23:34:31.103Z,32.60
2022-10-28T23:37:13.674Z,29.70
2022-10-28T23:39:42.585Z,28.20
2022-10-28T23:42:11.463Z,27.10
2022-10-28T23:44:57.594Z,35.20
2022-10-28T23:47:40.720Z,29.80
2022-10-28T23:50:26.491Z,26.90
2022-10-28T23:53:09.226Z,32.10
2022-10-28T23:55:38.127Z,33.10
2022-10-28T23:58:07.518Z,30.50
